Repentigny, Canada
Current Conditions -  °F | °C
As of 7:00 AM on Saturday 01 Nov 2014 (Local Time) from CYHU Reporting Station
Overcast Overcast  
Wind Chill: 29°   Ceiling: 9000
Heat Index: 37°   Visibility: 9mi
Dew Point: 30°   Wind: 13mph
Humidity: 75%   Direction: 20°NNE
Pressure: 30.09"   Gusts: 20mph
Location:  45.73°N, 73.45°W
Report Text: CYHU 011100Z AUTO 02011G17KT 9SM OVC090 03/M01 A3009 RMK SLP191
Loading
Personal Weather Stations






























Interactive Weather Map
Tropical Storm Tracking
New forecast layout! Learn more

10-Day Weather Forecast

Advertisements
Track Severe Weather on mobile